createdAt,value
2023-01-17T00:02:16.591Z,4.84
2023-01-17T00:05:02.109Z,4.86
2023-01-17T00:07:47.802Z,4.86
2023-01-17T00:10:17.999Z,4.83
2023-01-17T00:12:53.034Z,4.84
2023-01-17T00:15:21.082Z,4.85
2023-01-17T00:17:48.897Z,4.89
2023-01-17T00:20:36.984Z,4.91
2023-01-17T00:23:27.087Z,4.93
2023-01-17T00:26:06.041Z,4.94
2023-01-17T00:28:37.139Z,4.92
2023-01-17T00:31:05.328Z,4.90
2023-01-17T00:33:32.265Z,4.92
2023-01-17T00:36:00.322Z,4.91
2023-01-17T00:38:30.186Z,4.92
2023-01-17T00:41:03.108Z,4.91
2023-01-17T00:43:49.547Z,4.92
2023-01-17T00:46:35.130Z,4.91
2023-01-17T00:49:20.420Z,4.92
2023-01-17T00:52:05.827Z,4.93
2023-01-17T00:54:51.005Z,4.94
2023-01-17T00:57:36.750Z,4.96
2023-01-17T01:00:22.856Z,4.99
2023-01-17T01:03:08.054Z,4.99
2023-01-17T01:05:55.825Z,4.98
2023-01-17T01:08:47.948Z,5.00
2023-01-17T01:11:36.845Z,4.99
2023-01-17T01:14:23.421Z,4.98
2023-01-17T01:17:09.095Z,4.97
2023-01-17T01:19:54.609Z,4.98
2023-01-17T01:22:40.174Z,4.97
2023-01-17T01:25:25.993Z,4.99
2023-01-17T01:28:11.114Z,4.97
2023-01-17T01:30:56.388Z,4.99
2023-01-17T01:33:23.155Z,4.99
2023-01-17T01:35:54.855Z,5.01
2023-01-17T01:38:24.096Z,5.01
2023-01-17T01:40:55.825Z,5.02
2023-01-17T01:43:51.919Z,5.04
2023-01-17T01:46:30.564Z,5.06
2023-01-17T01:49:12.166Z,5.09
2023-01-17T01:51:44.847Z,5.09
2023-01-17T01:54:19.797Z,5.12
2023-01-17T01:56:49.566Z,5.14
2023-01-17T01:59:19.866Z,5.11
2023-01-17T02:01:48.420Z,5.13
2023-01-17T02:04:15.551Z,5.15
2023-01-17T02:06:53.979Z,5.15
2023-01-17T02:09:20.975Z,5.13
2023-01-17T02:11:49.757Z,5.16
2023-01-17T02:14:21.584Z,5.18
2023-01-17T02:17:10.718Z,5.18
2023-01-17T02:19:56.387Z,5.19
2023-01-17T02:23:02.597Z,5.19
2023-01-17T02:25:54.062Z,5.19
2023-01-17T02:28:53.166Z,5.20
2023-01-17T02:31:33.138Z,5.22
2023-01-17T02:34:23.701Z,5.24
2023-01-17T02:37:06.768Z,5.24
2023-01-17T02:39:39.599Z,5.24
2023-01-17T02:42:17.965Z,5.26
2023-01-17T02:44:45.322Z,5.27
2023-01-17T02:47:28.343Z,5.27
2023-01-17T02:50:10.582Z,5.28
2023-01-17T02:53:09.429Z,5.28
2023-01-17T02:56:06.083Z,5.28
2023-01-17T02:58:48.392Z,5.28
2023-01-17T03:01:33.965Z,5.28
2023-01-17T03:04:06.183Z,5.24
2023-01-17T03:06:43.496Z,5.24
2023-01-17T03:09:10.739Z,5.26
2023-01-17T03:11:37.573Z,5.27
2023-01-17T03:14:04.359Z,5.26
2023-01-17T03:16:33.114Z,5.27
2023-01-17T03:19:00.370Z,5.28
2023-01-17T03:21:27.179Z,5.29
2023-01-17T03:23:54.071Z,5.30
2023-01-17T03:26:20.873Z,5.30
2023-01-17T03:28:47.741Z,5.29
2023-01-17T03:31:16.031Z,5.30
2023-01-17T03:33:42.970Z,5.32
2023-01-17T03:36:09.977Z,5.31
2023-01-17T03:38:37.517Z,5.30
2023-01-17T03:41:05.149Z,5.29
2023-01-17T03:43:31.945Z,5.31
2023-01-17T03:46:03.553Z,5.31
2023-01-17T03:48:30.970Z,5.34
2023-01-17T03:50:57.877Z,5.32
2023-01-17T03:53:24.728Z,5.32
2023-01-17T03:55:52.000Z,5.33
2023-01-17T03:58:18.882Z,5.34
2023-01-17T04:00:45.702Z,5.33
2023-01-17T04:03:13.128Z,5.35
2023-01-17T04:05:40.914Z,5.36
2023-01-17T04:08:08.351Z,5.38
2023-01-17T04:10:35.150Z,5.38
2023-01-17T04:13:02.581Z,5.36
2023-01-17T04:15:29.606Z,5.35
2023-01-17T04:17:57.404Z,5.34
2023-01-17T04:20:39.559Z,5.32
2023-01-17T04:23:07.441Z,5.32
2023-01-17T04:25:34.896Z,5.30
2023-01-17T04:28:03.819Z,5.31
2023-01-17T04:30:32.502Z,5.31
2023-01-17T04:33:00.204Z,5.30
2023-01-17T04:35:30.443Z,5.29
2023-01-17T04:37:57.276Z,5.31
2023-01-17T04:40:24.672Z,5.32
2023-01-17T04:42:52.215Z,5.30
2023-01-17T04:45:19.321Z,5.29
2023-01-17T04:47:46.387Z,5.27
2023-01-17T04:50:14.085Z,5.28
2023-01-17T04:52:41.227Z,5.28
2023-01-17T04:55:08.796Z,5.30
2023-01-17T04:57:35.792Z,5.30
2023-01-17T05:00:03.984Z,5.31
2023-01-17T05:02:30.795Z,5.29
2023-01-17T05:04:58.004Z,5.31
2023-01-17T05:07:25.823Z,5.27
2023-01-17T05:09:52.889Z,5.27
2023-01-17T05:12:21.003Z,5.28
2023-01-17T05:14:48.102Z,5.28
2023-01-17T05:17:14.854Z,5.26
2023-01-17T05:19:41.955Z,5.26
2023-01-17T05:22:15.080Z,5.24
2023-01-17T05:24:46.580Z,5.28
2023-01-17T05:27:14.949Z,5.26
2023-01-17T05:29:41.771Z,5.24
2023-01-17T05:32:08.605Z,5.22
2023-01-17T05:34:36.081Z,5.20
2023-01-17T05:37:03.649Z,5.18
2023-01-17T05:39:31.154Z,5.17
2023-01-17T05:41:59.263Z,5.16
2023-01-17T05:44:27.979Z,5.16
2023-01-17T05:46:56.559Z,5.16
2023-01-17T05:49:23.956Z,5.13
2023-01-17T05:51:54.132Z,5.14
2023-01-17T05:54:22.312Z,5.16
2023-01-17T05:59:20.557Z,5.12
2023-01-17T06:01:54.381Z,5.13
2023-01-17T06:04:21.949Z,5.15
2023-01-17T06:06:49.747Z,5.17
2023-01-17T06:09:16.789Z,5.16
2023-01-17T06:11:44.208Z,5.18
2023-01-17T06:14:11.098Z,5.19
2023-01-17T06:16:37.863Z,5.19
2023-01-17T06:19:05.282Z,5.18
2023-01-17T06:21:32.384Z,5.20
2023-01-17T06:23:59.164Z,5.18
2023-01-17T06:26:26.251Z,5.15
2023-01-17T06:28:53.658Z,5.10
2023-01-17T06:31:20.584Z,5.09
2023-01-17T06:33:47.737Z,5.08
2023-01-17T06:36:14.840Z,5.07
2023-01-17T06:38:42.280Z,5.06
2023-01-17T06:41:10.090Z,5.04
2023-01-17T06:43:37.308Z,5.05
2023-01-17T06:46:04.849Z,5.03
2023-01-17T06:48:31.926Z,4.98
2023-01-17T06:50:59.721Z,5.02
2023-01-17T06:53:26.882Z,5.01
2023-01-17T06:55:57.948Z,5.01
2023-01-17T06:58:25.437Z,4.98
2023-01-17T07:00:52.926Z,4.88
2023-01-17T07:03:23.313Z,4.87
2023-01-17T07:05:51.197Z,4.87
2023-01-17T07:08:20.096Z,4.84
2023-01-17T07:10:48.050Z,4.86
2023-01-17T07:13:15.417Z,4.88
2023-01-17T07:15:42.691Z,4.90
2023-01-17T07:18:09.872Z,4.90
2023-01-17T07:20:38.417Z,4.88
2023-01-17T07:23:06.304Z,4.86
2023-01-17T07:25:33.445Z,4.87
2023-01-17T07:28:00.270Z,4.87
2023-01-17T07:30:27.403Z,4.87
2023-01-17T07:32:55.638Z,4.85
2023-01-17T07:35:24.256Z,4.86
2023-01-17T07:37:51.621Z,4.84
2023-01-17T07:40:20.174Z,4.79
2023-01-17T07:42:47.827Z,4.81
2023-01-17T07:45:16.394Z,4.83
2023-01-17T07:47:44.706Z,4.82
2023-01-17T07:50:13.689Z,4.80
2023-01-17T07:52:41.703Z,4.77
2023-01-17T07:55:09.585Z,4.81
2023-01-17T07:57:36.741Z,4.81
2023-01-17T08:00:05.241Z,4.83
2023-01-17T08:02:32.356Z,4.84
2023-01-17T08:04:59.143Z,4.86
2023-01-17T08:07:26.656Z,4.88
2023-01-17T08:09:55.128Z,4.91
2023-01-17T08:12:21.893Z,4.94
2023-01-17T08:14:49.030Z,4.97
2023-01-17T08:17:18.229Z,5.02
2023-01-17T08:19:45.055Z,5.03
2023-01-17T08:22:12.434Z,5.07
2023-01-17T08:24:39.904Z,5.09
2023-01-17T08:27:08.956Z,5.14
2023-01-17T08:29:36.400Z,5.15
2023-01-17T08:32:03.962Z,5.17
2023-01-17T08:34:33.466Z,5.18
2023-01-17T08:37:00.690Z,5.20
2023-01-17T08:39:28.522Z,5.24
2023-01-17T08:41:55.329Z,5.29
2023-01-17T08:44:22.778Z,5.28
2023-01-17T08:46:50.672Z,5.28
2023-01-17T08:49:17.803Z,5.30
2023-01-17T08:51:44.929Z,5.31
2023-01-17T08:54:13.683Z,5.32
2023-01-17T08:56:42.795Z,5.34
2023-01-17T08:59:11.878Z,5.37
2023-01-17T09:01:42.366Z,5.37
2023-01-17T09:04:10.552Z,5.41
2023-01-17T09:06:39.511Z,5.44
2023-01-17T09:09:07.733Z,5.45
2023-01-17T09:11:35.005Z,5.48
2023-01-17T09:14:02.305Z,5.50
2023-01-17T09:16:30.376Z,5.51
2023-01-17T09:18:59.290Z,5.54
2023-01-17T09:21:26.950Z,5.56
2023-01-17T09:23:55.370Z,5.60
2023-01-17T09:26:28.448Z,5.65
2023-01-17T09:28:55.875Z,5.69
2023-01-17T09:31:24.886Z,5.72
2023-01-17T09:33:53.811Z,5.75
2023-01-17T09:36:22.501Z,5.80
2023-01-17T09:38:49.637Z,5.82
2023-01-17T09:41:41.401Z,5.84
2023-01-17T09:44:28.270Z,5.88
2023-01-17T09:47:00.504Z,5.93
2023-01-17T09:49:45.548Z,5.96
2023-01-17T09:52:21.071Z,6.00
2023-01-17T09:54:49.988Z,6.03
2023-01-17T09:57:54.189Z,6.07
2023-01-17T10:00:30.274Z,6.12
2023-01-17T10:03:17.797Z,6.14
2023-01-17T10:06:14.156Z,6.15
2023-01-17T10:08:59.929Z,6.14
2023-01-17T10:11:26.957Z,6.16
2023-01-17T10:14:31.347Z,6.18
2023-01-17T10:17:21.789Z,6.19
2023-01-17T10:20:04.345Z,6.27
2023-01-17T10:22:37.778Z,6.24
2023-01-17T10:25:13.124Z,6.24
2023-01-17T10:28:04.773Z,6.26
2023-01-17T10:30:39.286Z,6.30
2023-01-17T10:33:34.563Z,6.33
2023-01-17T10:36:08.613Z,6.36
2023-01-17T10:38:43.474Z,6.38
2023-01-17T10:41:16.614Z,6.41
2023-01-17T10:43:52.561Z,6.42
2023-01-17T10:46:28.655Z,6.46
2023-01-17T10:48:57.370Z,6.50
2023-01-17T10:51:43.221Z,6.52
2023-01-17T10:54:33.642Z,6.54
2023-01-17T10:57:00.875Z,6.56
2023-01-17T10:59:31.782Z,6.58
2023-01-17T11:02:00.959Z,6.63
2023-01-17T11:04:36.942Z,6.65
2023-01-17T11:07:20.202Z,6.68
2023-01-17T11:09:56.071Z,6.71
2023-01-17T11:12:47.155Z,6.75
2023-01-17T11:15:18.151Z,6.76
2023-01-17T11:17:53.232Z,6.79
2023-01-17T11:20:38.384Z,6.84
2023-01-17T11:23:24.587Z,6.86
2023-01-17T11:26:00.802Z,6.89
2023-01-17T11:28:30.901Z,6.90
2023-01-17T11:31:00.604Z,6.91
2023-01-17T11:33:33.921Z,6.94
2023-01-17T11:36:01.361Z,6.97
2023-01-17T11:38:29.196Z,6.97
2023-01-17T11:41:16.277Z,6.99
2023-01-17T11:43:53.516Z,7.01
2023-01-17T11:46:20.780Z,7.03
2023-01-17T11:49:00.060Z,7.05
2023-01-17T11:51:29.591Z,7.06
2023-01-17T11:54:07.886Z,7.09
2023-01-17T11:56:37.439Z,7.11
2023-01-17T11:59:11.764Z,7.13
2023-01-17T12:02:01.947Z,7.15
2023-01-17T12:04:41.098Z,7.19
2023-01-17T12:07:15.221Z,7.19
2023-01-17T12:09:51.170Z,7.20
2023-01-17T12:13:06.255Z,7.21
2023-01-17T12:15:44.974Z,7.24
2023-01-17T12:18:37.229Z,7.25
2023-01-17T12:21:07.258Z,7.26
2023-01-17T12:23:59.333Z,7.27
2023-01-17T12:26:38.309Z,7.28
2023-01-17T12:29:34.409Z,7.31
2023-01-17T12:32:10.520Z,7.32
2023-01-17T12:35:07.888Z,7.34
2023-01-17T12:37:39.351Z,7.34
2023-01-17T12:40:19.143Z,7.34
2023-01-17T12:43:03.602Z,7.35
2023-01-17T12:45:39.282Z,7.36
2023-01-17T12:48:12.120Z,7.35
2023-01-17T12:50:41.997Z,7.36
2023-01-17T12:53:35.536Z,7.35
2023-01-17T12:56:17.081Z,7.35
2023-01-17T12:58:53.341Z,7.36
2023-01-17T13:01:24.224Z,7.35
2023-01-17T13:04:21.545Z,7.35
2023-01-17T13:07:04.668Z,7.36
2023-01-17T13:09:41.500Z,7.37
2023-01-17T13:12:14.430Z,7.37
2023-01-17T13:14:41.898Z,7.38
2023-01-17T13:17:24.853Z,7.38
2023-01-17T13:19:58.589Z,7.38
2023-01-17T13:22:27.231Z,7.39
2023-01-17T13:25:13.534Z,7.39
2023-01-17T13:28:15.407Z,7.42
2023-01-17T13:30:57.692Z,7.42
2023-01-17T13:33:36.884Z,7.43
2023-01-17T13:36:09.770Z,7.43
2023-01-17T13:39:00.947Z,7.43
2023-01-17T13:41:34.391Z,7.44
2023-01-17T13:44:21.467Z,7.43
2023-01-17T13:47:18.255Z,7.44
2023-01-17T13:49:51.861Z,7.44
2023-01-17T13:52:19.270Z,7.48
2023-01-17T13:54:46.038Z,7.45
2023-01-17T13:57:47.096Z,7.45
2023-01-17T14:00:21.722Z,7.46
2023-01-17T14:02:50.790Z,7.46
2023-01-17T14:05:22.983Z,7.46
2023-01-17T14:07:59.913Z,7.46
2023-01-17T14:10:29.486Z,7.47
2023-01-17T14:12:56.745Z,7.46
2023-01-17T14:15:27.450Z,7.46
2023-01-17T14:18:36.664Z,7.47
2023-01-17T14:21:22.278Z,7.47
2023-01-17T14:23:50.000Z,7.47
2023-01-17T14:26:31.542Z,7.47
2023-01-17T14:29:19.524Z,7.47
2023-01-17T14:31:47.364Z,7.46
2023-01-17T14:34:22.060Z,7.46
2023-01-17T14:36:49.477Z,7.47
2023-01-17T14:39:22.984Z,7.47
2023-01-17T14:41:50.294Z,7.48
2023-01-17T14:44:17.728Z,7.47
2023-01-17T14:46:48.542Z,7.46
2023-01-17T14:49:25.751Z,7.45
2023-01-17T14:52:04.178Z,7.46
2023-01-17T14:54:31.586Z,7.46
2023-01-17T14:57:25.037Z,7.45
2023-01-17T14:59:52.529Z,7.44
2023-01-17T15:02:20.176Z,7.43
2023-01-17T15:04:54.618Z,7.45
2023-01-17T15:07:24.210Z,7.45
2023-01-17T15:09:51.367Z,7.43
2023-01-17T15:12:19.921Z,7.43
2023-01-17T15:14:47.252Z,7.44
2023-01-17T15:17:26.010Z,7.44
2023-01-17T15:20:08.668Z,7.43
2023-01-17T15:22:35.890Z,7.42
2023-01-17T15:25:03.683Z,7.48
2023-01-17T15:27:31.021Z,7.51
2023-01-17T15:30:02.728Z,7.50
2023-01-17T15:32:33.200Z,7.49
2023-01-17T15:35:03.133Z,7.49
2023-01-17T15:37:33.101Z,7.48
2023-01-17T15:40:18.847Z,7.47
2023-01-17T15:43:06.873Z,7.46
2023-01-17T15:45:36.091Z,7.47
2023-01-17T15:48:38.266Z,7.46
2023-01-17T15:51:05.834Z,7.45
2023-01-17T15:53:38.233Z,7.44
2023-01-17T15:56:33.194Z,7.42
2023-01-17T15:59:45.911Z,7.43
2023-01-17T16:02:55.171Z,7.43
2023-01-17T16:05:22.822Z,7.43
2023-01-17T16:08:02.885Z,7.43
2023-01-17T16:10:38.306Z,7.41
2023-01-17T16:13:07.984Z,7.43
2023-01-17T16:15:36.033Z,7.42
2023-01-17T16:18:04.479Z,7.42
2023-01-17T16:20:43.421Z,7.42
2023-01-17T16:23:10.950Z,7.42
2023-01-17T16:25:38.457Z,7.42
2023-01-17T16:28:06.529Z,7.40
2023-01-17T16:30:34.382Z,7.40
2023-01-17T16:33:03.827Z,7.41
2023-01-17T16:35:34.092Z,7.42
2023-01-17T16:38:04.742Z,7.42
2023-01-17T16:40:41.191Z,7.40
2023-01-17T16:43:11.527Z,7.41
2023-01-17T16:45:46.691Z,7.38
2023-01-17T16:48:14.548Z,7.36
2023-01-17T16:50:48.033Z,7.35
2023-01-17T16:53:16.069Z,7.23
2023-01-17T16:55:44.342Z,7.20
2023-01-17T16:58:12.013Z,7.19
2023-01-17T17:00:40.421Z,7.20
2023-01-17T17:03:07.609Z,7.20
2023-01-17T17:05:34.552Z,7.19
2023-01-17T17:08:02.043Z,7.19
2023-01-17T17:10:29.911Z,7.17
2023-01-17T17:12:57.643Z,7.17
2023-01-17T17:15:24.834Z,7.16
2023-01-17T17:17:54.814Z,7.15
2023-01-17T17:20:25.031Z,7.16
2023-01-17T17:22:52.363Z,7.14
2023-01-17T17:25:20.196Z,7.14
2023-01-17T17:28:06.031Z,7.14
2023-01-17T17:30:34.903Z,7.14
2023-01-17T17:33:04.971Z,7.12
2023-01-17T17:35:35.585Z,7.11
2023-01-17T17:38:02.833Z,7.07
2023-01-17T17:40:30.573Z,7.07
2023-01-17T17:42:58.155Z,7.06
2023-01-17T17:45:26.000Z,7.06
2023-01-17T17:47:54.592Z,7.03
2023-01-17T17:50:21.995Z,7.05
2023-01-17T17:52:50.934Z,7.02
2023-01-17T17:55:19.138Z,7.02
2023-01-17T17:57:46.865Z,7.00
2023-01-17T18:00:14.524Z,6.99
2023-01-17T18:02:43.614Z,6.97
2023-01-17T18:05:11.730Z,6.99
2023-01-17T18:07:39.628Z,6.98
2023-01-17T18:10:08.913Z,6.98
2023-01-17T18:12:36.879Z,6.96
2023-01-17T18:15:05.550Z,6.97
2023-01-17T18:17:33.713Z,6.97
2023-01-17T18:20:01.125Z,6.94
2023-01-17T18:22:31.370Z,6.93
2023-01-17T18:24:58.781Z,6.94
2023-01-17T18:27:27.150Z,6.92
2023-01-17T18:29:56.209Z,6.93
2023-01-17T18:32:23.795Z,6.92
2023-01-17T18:34:52.195Z,6.94
2023-01-17T18:37:20.387Z,6.93
2023-01-17T18:39:48.734Z,6.91
2023-01-17T18:42:17.446Z,6.91
2023-01-17T18:44:48.127Z,6.90
2023-01-17T18:47:16.758Z,6.91
2023-01-17T18:49:45.639Z,6.90
2023-01-17T18:52:15.319Z,6.89
2023-01-17T18:54:43.377Z,6.87
2023-01-17T18:57:12.458Z,6.88
2023-01-17T18:59:41.464Z,6.88
2023-01-17T19:02:09.556Z,6.87
2023-01-17T19:04:39.203Z,6.87
2023-01-17T19:07:07.894Z,6.85
2023-01-17T19:09:36.486Z,6.85
2023-01-17T19:12:05.421Z,6.85
2023-01-17T19:14:34.186Z,6.85
2023-01-17T19:17:02.325Z,6.87
2023-01-17T19:19:30.651Z,6.86
2023-01-17T19:21:59.118Z,6.86
2023-01-17T19:24:28.229Z,6.83
2023-01-17T19:26:57.935Z,6.85
2023-01-17T19:29:27.179Z,6.85
2023-01-17T19:31:55.125Z,6.88
2023-01-17T19:34:22.832Z,6.86
2023-01-17T19:36:53.929Z,6.87
2023-01-17T19:39:25.735Z,6.84
2023-01-17T19:41:54.366Z,6.84
2023-01-17T19:44:22.219Z,6.85
2023-01-17T19:46:50.339Z,6.85
2023-01-17T19:49:24.028Z,6.84
2023-01-17T19:51:52.459Z,6.85
2023-01-17T19:54:20.763Z,6.88
2023-01-17T19:56:49.110Z,6.90
2023-01-17T19:59:17.290Z,6.86
2023-01-17T20:01:45.805Z,6.86
2023-01-17T20:04:13.663Z,6.84
2023-01-17T20:06:41.885Z,6.87
2023-01-17T20:09:10.890Z,6.85
2023-01-17T20:11:43.990Z,6.85
2023-01-17T20:14:16.858Z,6.86
2023-01-17T20:16:49.655Z,6.85
2023-01-17T20:19:17.494Z,6.86
2023-01-17T20:21:45.012Z,6.84
2023-01-17T20:24:14.212Z,6.85
2023-01-17T20:26:41.966Z,6.85
2023-01-17T20:29:15.627Z,6.84
2023-01-17T20:31:44.710Z,6.84
2023-01-17T20:34:20.167Z,6.88
2023-01-17T20:36:48.775Z,6.87
2023-01-17T20:39:20.140Z,6.88
2023-01-17T20:41:50.811Z,6.86
2023-01-17T20:44:21.907Z,6.87
2023-01-17T20:46:49.161Z,6.86
2023-01-17T20:49:19.626Z,6.86
2023-01-17T20:51:47.885Z,6.85
2023-01-17T20:54:18.624Z,6.84
2023-01-17T20:56:47.496Z,6.84
2023-01-17T20:59:18.402Z,6.82
2023-01-17T21:01:46.725Z,6.81
2023-01-17T21:04:15.054Z,6.78
2023-01-17T21:06:44.455Z,6.79
2023-01-17T21:09:14.635Z,6.78
2023-01-17T21:11:41.590Z,6.79
2023-01-17T21:14:08.948Z,6.78
2023-01-17T21:16:36.434Z,6.79
2023-01-17T21:19:03.700Z,6.80
2023-01-17T21:21:30.962Z,6.81
2023-01-17T21:23:59.685Z,6.78
2023-01-17T21:26:28.281Z,6.78
2023-01-17T21:28:56.346Z,6.78
2023-01-17T21:31:29.211Z,6.77
2023-01-17T21:33:59.137Z,6.80
2023-01-17T21:36:33.102Z,6.81
2023-01-17T21:39:05.018Z,6.79
2023-01-17T21:41:37.798Z,6.77
2023-01-17T21:44:08.921Z,6.78
2023-01-17T21:46:40.808Z,6.78
2023-01-17T21:49:12.248Z,6.75
2023-01-17T21:51:52.481Z,6.78
2023-01-17T21:54:44.981Z,6.77
2023-01-17T21:57:34.264Z,6.78
2023-01-17T22:00:01.421Z,6.77
2023-01-17T22:02:28.583Z,6.78
2023-01-17T22:04:56.612Z,6.77
2023-01-17T22:07:27.017Z,6.75
2023-01-17T22:09:54.646Z,6.75
2023-01-17T22:12:21.747Z,6.76
2023-01-17T22:14:48.860Z,6.77
2023-01-17T22:17:16.356Z,6.77
2023-01-17T22:19:43.594Z,6.77
2023-01-17T22:22:10.670Z,6.76
2023-01-17T22:24:37.438Z,6.75
2023-01-17T22:27:04.879Z,6.75
2023-01-17T22:29:34.025Z,6.74
2023-01-17T22:32:01.116Z,6.75
2023-01-17T22:34:28.324Z,6.76
2023-01-17T22:36:55.401Z,6.74
2023-01-17T22:39:22.210Z,6.75
2023-01-17T22:41:49.697Z,6.74
2023-01-17T22:44:17.105Z,6.74
2023-01-17T22:46:44.015Z,6.72
2023-01-17T22:49:13.390Z,6.73
2023-01-17T22:51:40.815Z,6.72
2023-01-17T22:54:07.916Z,6.72
2023-01-17T22:56:35.123Z,6.71
2023-01-17T22:59:02.745Z,6.70
2023-01-17T23:01:32.728Z,6.68
2023-01-17T23:04:03.727Z,6.68
2023-01-17T23:06:39.078Z,6.67
2023-01-17T23:09:12.099Z,6.67
2023-01-17T23:11:52.969Z,6.67
2023-01-17T23:14:26.025Z,6.66
2023-01-17T23:17:16.261Z,6.64
2023-01-17T23:19:43.320Z,6.65
2023-01-17T23:22:16.480Z,6.64
2023-01-17T23:24:49.570Z,6.65
2023-01-17T23:27:44.774Z,6.65
2023-01-17T23:30:17.749Z,6.65
2023-01-17T23:32:53.156Z,6.63
2023-01-17T23:35:22.097Z,6.63
2023-01-17T23:38:08.638Z,6.64
2023-01-17T23:40:37.733Z,6.62
2023-01-17T23:43:24.296Z,6.62
2023-01-17T23:45:53.381Z,6.61
2023-01-17T23:48:23.970Z,6.61
2023-01-17T23:50:51.264Z,6.59
2023-01-17T23:53:23.261Z,6.57
2023-01-17T23:55:53.116Z,6.58
2023-01-17T23:58:22.572Z,6.57
